Wetterdaten: aktuell Freitag, 03.07.2020 20:40
Datum Zeit Temp. A. Temp. A. min Feuchte A. Luftdruck Regen Wind Richtung Richtung Sonnenschein Solar Taupunkt Windchill Windben
03.07.2020 20:40 22,2 C 22,2 C 45 % 1024,8 hPa 0,0 l/m 0,0 km/h (0 Bft) W 262 0 min 0 W/m 9,7 C 22,2 C 0,0 km/h (0 Bft)
03.07.2020 20:35 22,4 C 22,4 C 46 % 1024,8 hPa 0,0 l/m 0,0 km/h (0 Bft) W 261 0 min 0 W/m 10,2 C 22,4 C 0,0 km/h (0 Bft)
03.07.2020 20:30 22,6 C 22,6 C 45 % 1024,8 hPa 0,0 l/m 0,0 km/h (0 Bft) W 281 0 min 0 W/m 10,1 C 22,6 C 0,0 km/h (0 Bft)
03.07.2020 20:25 22,7 C 22,7 C 45 % 1024,8 hPa 0,0 l/m 0,0 km/h (0 Bft) W-SW 250 0 min 0 W/m 10,1 C 22,7 C 0,0 km/h (0 Bft)
03.07.2020 20:20 22,7 C 22,7 C 44 % 1024,7 hPa 0,0 l/m 0,6 km/h (0 Bft) W-NW 292 0 min 0 W/m 9,8 C 22,7 C 3,2 km/h (1 Bft)
03.07.2020 20:15 22,7 C 22,7 C 43 % 1024,8 hPa 0,0 l/m 0,0 km/h (0 Bft) W-SW 246 0 min 0 W/m 9,5 C 22,7 C 1,6 km/h (1 Bft)
03.07.2020 20:10 22,8 C 22,8 C 44 % 1024,7 hPa 0,0 l/m 0,1 km/h (0 Bft) W-NW 288 0 min 0 W/m 9,9 C 22,8 C 1,6 km/h (1 Bft)
03.07.2020 20:05 22,9 C 22,9 C 43 % 1024,7 hPa 0,0 l/m 0,0 km/h (0 Bft) W-SW 249 0 min 0 W/m 9,6 C 22,9 C 1,6 km/h (1 Bft)
03.07.2020 20:00 22,9 C 22,9 C 43 % 1024,7 hPa 0,0 l/m 1,9 km/h (1 Bft) W 268 0 min 0 W/m 9,6 C 22,9 C 9,7 km/h (2 Bft)
03.07.2020 19:55 22,9 C 22,9 C 42 % 1024,7 hPa 0,0 l/m 3,2 km/h (1 Bft) W 263 0 min 0 W/m 9,3 C 22,9 C 11,3 km/h (2 Bft)
03.07.2020 19:50 23,0 C 23,0 C 43 % 1024,8 hPa 0,0 l/m 1,2 km/h (1 Bft) W 265 0 min 0 W/m 9,7 C 23,0 C 11,3 km/h (2 Bft)
03.07.2020 19:45 23,0 C 23,0 C 43 % 1024,7 hPa 0,0 l/m 0,1 km/h (0 Bft) S-SW 199 0 min 0 W/m 9,7 C 23,0 C 3,2 km/h (1 Bft)
03.07.2020 19:40 23,1 C 23,1 C 42 % 1024,7 hPa 0,0 l/m 0,0 km/h (0 Bft) W-SW 248 0 min 0 W/m 9,5 C 23,1 C 0,0 km/h (0 Bft)
03.07.2020 19:35 23,2 C 23,2 C 42 % 1024,7 hPa 0,0 l/m 0,0 km/h (0 Bft) NW 308 0 min 0 W/m 9,6 C 23,2 C 0,0 km/h (0 Bft)
03.07.2020 19:30 23,3 C 23,2 C 42 % 1024,6 hPa 0,0 l/m 0,1 km/h (0 Bft) W-NW 285 0 min 0 W/m 9,7 C 23,3 C 1,6 km/h (1 Bft)
03.07.2020 19:25 23,4 C 23,4 C 42 % 1024,6 hPa 0,0 l/m 0,0 km/h (0 Bft) W-NW 286 0 min 0 W/m 9,7 C 23,4 C 1,6 km/h (1 Bft)
03.07.2020 19:20 23,4 C 23,4 C 41 % 1024,6 hPa 0,0 l/m 0,0 km/h (0 Bft) W-SW 246 0 min 0 W/m 9,4 C 23,4 C 1,6 km/h (1 Bft)
03.07.2020 19:15 23,4 C 23,4 C 40 % 1024,6 hPa 0,0 l/m 2,0 km/h (1 Bft) NW 305 0 min 0 W/m 9,0 C 23,4 C 12,9 km/h (3 Bft)
03.07.2020 19:10 23,5 C 23,4 C 41 % 1024,6 hPa 0,0 l/m 1,3 km/h (1 Bft) S-SW 205 0 min 0 W/m 9,5 C 23,5 C 9,7 km/h (2 Bft)
03.07.2020 19:05 23,5 C 23,5 C 41 % 1024,5 hPa 0,0 l/m 3,7 km/h (1 Bft) S-SW 197 0 min 0 W/m 9,5 C 23,5 C 12,9 km/h (3 Bft)
03.07.2020 19:00 23,5 C 23,5 C 42 % 1024,6 hPa 0,0 l/m 1,5 km/h (1 Bft) SW 222 0 min 0 W/m 9,8 C 23,5 C 11,3 km/h (2 Bft)
03.07.2020 18:55 23,5 C 23,4 C 41 % 1024,5 hPa 0,0 l/m 0,2 km/h (0 Bft) W 277 0 min 0 W/m 9,5 C 23,5 C 6,4 km/h (2 Bft)
03.07.2020 18:50 23,5 C 23,4 C 41 % 1024,5 hPa 0,0 l/m 2,6 km/h (1 Bft) N 355 0 min 0 W/m 9,5 C 23,5 C 11,3 km/h (2 Bft)
03.07.2020 18:45 23,4 C 23,3 C 42 % 1024,6 hPa 0,0 l/m 4,8 km/h (1 Bft) NW 325 0 min 0 W/m 9,7 C 23,4 C 12,9 km/h (3 Bft)
03.07.2020 18:40 23,3 C 23,3 C 42 % 1024,5 hPa 0,0 l/m 6,2 km/h (2 Bft) NW 312 0 min 0 W/m 9,7 C 23,3 C 16,1 km/h (3 Bft)
03.07.2020 18:35 23,3 C 23,3 C 42 % 1024,6 hPa 0,0 l/m 4,0 km/h (1 Bft) N-NO 32 0 min 0 W/m 9,7 C 23,3 C 14,5 km/h (3 Bft)
03.07.2020 18:30 23,3 C 23,3 C 44 % 1024,6 hPa 0,0 l/m 1,1 km/h (1 Bft) W 263 0 min 0 W/m 10,4 C 23,3 C 6,4 km/h (2 Bft)
03.07.2020 18:25 23,4 C 23,4 C 43 % 1024,7 hPa 0,0 l/m 2,7 km/h (1 Bft) W 261 0 min 0 W/m 10,1 C 23,4 C 12,9 km/h (3 Bft)
03.07.2020 18:20 23,6 C 23,6 C 42 % 1024,7 hPa 0,0 l/m 2,5 km/h (1 Bft) W 269 0 min 0 W/m 9,9 C 23,6 C 14,5 km/h (3 Bft)
03.07.2020 18:15 23,8 C 23,8 C 41 % 1024,7 hPa 0,0 l/m 2,6 km/h (1 Bft) W 272 0 min 0 W/m 9,7 C 23,8 C 12,9 km/h (3 Bft)
03.07.2020 18:10 23,9 C 23,9 C 40 % 1024,5 hPa 0,0 l/m 3,1 km/h (1 Bft) NW 309 0 min 0 W/m 9,5 C 23,9 C 12,9 km/h (3 Bft)
03.07.2020 18:05 23,9 C 23,7 C 43 % 1024,5 hPa 0,0 l/m 4,2 km/h (1 Bft) S-SW 203 0 min 0 W/m 10,5 C 23,9 C 12,9 km/h (3 Bft)
03.07.2020 18:00 23,7 C 23,7 C 41 % 1024,5 hPa 0,0 l/m 2,9 km/h (1 Bft) N-NW 348 0 min 0 W/m 9,7 C 23,7 C 12,9 km/h (3 Bft)
03.07.2020 17:55 23,7 C 23,7 C 43 % 1024,4 hPa 0,0 l/m 0,5 km/h (0 Bft) O 94 0 min 0 W/m 10,4 C 23,7 C 1,6 km/h (1 Bft)
03.07.2020 17:50 23,8 C 23,8 C 42 % 1024,5 hPa 0,0 l/m 1,1 km/h (1 Bft) W 276 0 min 0 W/m 10,1 C 23,8 C 6,4 km/h (2 Bft)
03.07.2020 17:45 23,9 C 23,9 C 41 % 1024,6 hPa 0,0 l/m 3,1 km/h (1 Bft) W 267 0 min 0 W/m 9,8 C 23,9 C 17,7 km/h (3 Bft)
03.07.2020 17:40 23,9 C 23,8 C 42 % 1024,6 hPa 0,0 l/m 2,8 km/h (1 Bft) S-SW 208 0 min 0 W/m 10,2 C 23,9 C 11,3 km/h (2 Bft)
03.07.2020 17:35 23,8 C 23,8 C 41 % 1024,7 hPa 0,0 l/m 3,3 km/h (1 Bft) W-SW 247 0 min 0 W/m 9,7 C 23,8 C 12,9 km/h (3 Bft)
03.07.2020 17:30 23,8 C 23,8 C 43 % 1024,6 hPa 0,0 l/m 0,0 km/h (0 Bft) W-SW 251 0 min 0 W/m 10,5 C 23,8 C 1,6 km/h (1 Bft)
03.07.2020 17:25 23,8 C 23,8 C 40 % 1024,6 hPa 0,0 l/m 1,2 km/h (1 Bft) W-NW 284 0 min 0 W/m 9,4 C 23,8 C 14,5 km/h (3 Bft)
03.07.2020 17:20 23,9 C 23,9 C 42 % 1024,5 hPa 0,0 l/m 0,0 km/h (0 Bft) W-NW 293 0 min 0 W/m 10,2 C 23,9 C 0,0 km/h (0 Bft)
03.07.2020 17:15 24,1 C 24,1 C 41 % 1024,6 hPa 0,0 l/m 0,0 km/h (0 Bft) S-SW 213 0 min 0 W/m 10,0 C 24,1 C 0,0 km/h (0 Bft)
03.07.2020 17:10 24,2 C 24,2 C 41 % 1024,6 hPa 0,0 l/m 0,0 km/h (0 Bft) S 181 0 min 0 W/m 10,1 C 24,2 C 0,0 km/h (0 Bft)
03.07.2020 17:05 24,2 C 24,1 C 41 % 1024,6 hPa 0,0 l/m 0,0 km/h (0 Bft) SW 217 0 min 0 W/m 10,1 C 24,2 C 3,2 km/h (1 Bft)
03.07.2020 17:00 24,1 C 24,1 C 40 % 1024,6 hPa 0,0 l/m 0,0 km/h (0 Bft) W-SW 242 0 min 0 W/m 9,6 C 24,1 C 0,0 km/h (0 Bft)
03.07.2020 16:55 24,1 C 24,0 C 41 % 1024,5 hPa 0,0 l/m 3,7 km/h (1 Bft) S 184 0 min 0 W/m 10,0 C 24,1 C 11,3 km/h (2 Bft)
03.07.2020 16:50 24,0 C 24,0 C 42 % 1024,6 hPa 0,0 l/m 1,4 km/h (1 Bft) W 265 0 min 0 W/m 10,3 C 24,0 C 6,4 km/h (2 Bft)
03.07.2020 16:45 24,0 C 23,9 C 42 % 1024,6 hPa 0,0 l/m 2,9 km/h (1 Bft) S-SW 198 0 min 0 W/m 10,3 C 24,0 C 11,3 km/h (2 Bft)
03.07.2020 16:40 23,9 C 23,9 C 41 % 1024,6 hPa 0,0 l/m 0,9 km/h (0 Bft) S 190 0 min 0 W/m 9,8 C 23,9 C 6,4 km/h (2 Bft)
03.07.2020 16:35 23,9 C 23,8 C 41 % 1024,7 hPa 0,0 l/m 3,3 km/h (1 Bft) S-SW 202 0 min 0 W/m 9,8 C 23,9 C 16,1 km/h (3 Bft)
03.07.2020 16:30 23,8 C 23,8 C 40 % 1024,7 hPa 0,0 l/m 1,9 km/h (1 Bft) S-SW 202 0 min 0 W/m 9,4 C 23,8 C 8,0 km/h (2 Bft)
03.07.2020 16:25 23,8 C 23,8 C 42 % 1024,8 hPa 0,0 l/m 3,2 km/h (1 Bft) S-SW 211 0 min 0 W/m 10,1 C 23,8 C 14,5 km/h (3 Bft)
03.07.2020 16:20 23,8 C 23,8 C 40 % 1024,9 hPa 0,0 l/m 7,0 km/h (2 Bft) W 281 0 min 0 W/m 9,4 C 23,8 C 19,3 km/h (3 Bft)
03.07.2020 16:15 23,8 C 23,8 C 42 % 1024,9 hPa 0,0 l/m 0,9 km/h (0 Bft) W 263 0 min 0 W/m 10,1 C 23,8 C 11,3 km/h (2 Bft)
03.07.2020 16:10 24,0 C 24,0 C 41 % 1024,8 hPa 0,0 l/m 2,1 km/h (1 Bft) W 277 0 min 0 W/m 9,9 C 24,0 C 11,3 km/h (2 Bft)
03.07.2020 16:05 24,1 C 23,9 C 43 % 1024,9 hPa 0,0 l/m 2,4 km/h (1 Bft) SW 219 0 min 0 W/m 10,7 C 24,1 C 11,3 km/h (2 Bft)
03.07.2020 16:00 23,9 C 23,8 C 43 % 1024,9 hPa 0,0 l/m 3,6 km/h (1 Bft) S-SW 205 0 min 0 W/m 10,5 C 23,9 C 14,5 km/h (3 Bft)
03.07.2020 15:55 23,8 C 23,8 C 44 % 1025,0 hPa 0,0 l/m 4,5 km/h (1 Bft) S 188 0 min 0 W/m 10,8 C 23,8 C 12,9 km/h (3 Bft)
03.07.2020 15:50 23,8 C 23,6 C 43 % 1025,0 hPa 0,0 l/m 1,0 km/h (0 Bft) NW 319 0 min 0 W/m 10,5 C 23,8 C 8,0 km/h (2 Bft)
03.07.2020 15:45 23,6 C 23,6 C 42 % 1024,9 hPa 0,0 l/m 4,2 km/h (1 Bft) W-NW 292 0 min 0 W/m 9,9 C 23,6 C 14,5 km/h (3 Bft)
03.07.2020 15:40 23,6 C 23,6 C 42 % 1025,0 hPa 0,0 l/m 3,0 km/h (1 Bft) W-SW 257 0 min 0 W/m 9,9 C 23,6 C 9,7 km/h (2 Bft)
03.07.2020 15:35 23,6 C 23,6 C 42 % 1025,1 hPa 0,0 l/m 5,0 km/h (1 Bft) W-SW 249 0 min 0 W/m 9,9 C 23,6 C 14,5 km/h (3 Bft)
03.07.2020 15:30 23,6 C 23,5 C 42 % 1025,1 hPa 0,0 l/m 1,9 km/h (1 Bft) W 270 0 min 0 W/m 9,9 C 23,6 C 9,7 km/h (2 Bft)
03.07.2020 15:25 23,5 C 23,5 C 43 % 1025,1 hPa 0,0 l/m 6,0 km/h (2 Bft) S-SW 211 0 min 0 W/m 10,2 C 23,5 C 14,5 km/h (3 Bft)
03.07.2020 15:20 23,5 C 23,5 C 43 % 1025,0 hPa 0,0 l/m 3,8 km/h (1 Bft) SW 219 0 min 0 W/m 10,2 C 23,5 C 14,5 km/h (3 Bft)
03.07.2020 15:15 23,5 C 23,4 C 45 % 1025,2 hPa 0,0 l/m 5,4 km/h (1 Bft) W-SW 255 0 min 0 W/m 10,9 C 23,5 C 17,7 km/h (3 Bft)
03.07.2020 15:10 23,4 C 23,4 C 45 % 1025,2 hPa 0,0 l/m 3,9 km/h (1 Bft) W-NW 290 0 min 0 W/m 10,8 C 23,4 C 12,9 km/h (3 Bft)
03.07.2020 15:05 23,4 C 23,3 C 45 % 1025,2 hPa 0,0 l/m 4,2 km/h (1 Bft) W-NW 282 0 min 0 W/m 10,8 C 23,4 C 16,1 km/h (3 Bft)
03.07.2020 15:00 23,3 C 23,3 C 46 % 1025,3 hPa 0,0 l/m 0,0 km/h (0 Bft) W 281 0 min 0 W/m 11,0 C 23,3 C 0,0 km/h (0 Bft)
03.07.2020 14:55 23,3 C 23,2 C 45 % 1025,3 hPa 0,0 l/m 0,0 km/h (0 Bft) S 186 0 min 0 W/m 10,7 C 23,3 C 1,6 km/h (1 Bft)
03.07.2020 14:50 23,2 C 23,2 C 44 % 1025,3 hPa 0,0 l/m 2,6 km/h (1 Bft) NW 316 0 min 0 W/m 10,3 C 23,2 C 12,9 km/h (3 Bft)
03.07.2020 14:45 23,2 C 23,2 C 46 % 1025,3 hPa 0,0 l/m 1,5 km/h (1 Bft) W-NW 284 0 min 0 W/m 10,9 C 23,2 C 6,4 km/h (2 Bft)
03.07.2020 14:40 23,3 C 23,3 C 45 % 1025,3 hPa 0,0 l/m 7,1 km/h (2 Bft) W 269 0 min 0 W/m 10,7 C 23,3 C 19,3 km/h (3 Bft)
03.07.2020 14:35 23,3 C 23,2 C 47 % 1025,3 hPa 0,0 l/m 4,9 km/h (1 Bft) W 275 0 min 0 W/m 11,3 C 23,3 C 12,9 km/h (3 Bft)
03.07.2020 14:30 23,2 C 23,2 C 47 % 1025,4 hPa 0,0 l/m 3,9 km/h (1 Bft) SW 216 0 min 0 W/m 11,3 C 23,2 C 14,5 km/h (3 Bft)
03.07.2020 14:25 23,2 C 23,1 C 47 % 1025,4 hPa 0,0 l/m 4,9 km/h (1 Bft) W 279 0 min 0 W/m 11,3 C 23,2 C 12,9 km/h (3 Bft)
03.07.2020 14:20 23,2 C 23,2 C 46 % 1025,4 hPa 0,0 l/m 6,1 km/h (2 Bft) S 179 0 min 0 W/m 10,9 C 23,2 C 17,7 km/h (3 Bft)
03.07.2020 14:15 23,2 C 23,2 C 47 % 1025,4 hPa 0,0 l/m 5,2 km/h (1 Bft) W-NW 296 0 min 0 W/m 11,3 C 23,2 C 14,5 km/h (3 Bft)
03.07.2020 14:10 23,3 C 23,3 C 47 % 1025,5 hPa 0,0 l/m 5,6 km/h (1 Bft) NW 308 0 min 0 W/m 11,3 C 23,3 C 20,9 km/h (4 Bft)
03.07.2020 14:05 23,5 C 23,5 C 46 % 1025,6 hPa 0,0 l/m 6,2 km/h (2 Bft) W-NW 288 0 min 0 W/m 11,2 C 23,5 C 14,5 km/h (3 Bft)
03.07.2020 14:00 23,9 C 23,9 C 44 % 1025,6 hPa 0,0 l/m 6,7 km/h (2 Bft) NW 321 0 min 0 W/m 10,9 C 23,9 C 22,5 km/h (4 Bft)
03.07.2020 13:55 24,1 C 24,1 C 42 % 1025,6 hPa 0,0 l/m 2,5 km/h (1 Bft) S-SW 213 0 min 0 W/m 10,4 C 24,1 C 11,3 km/h (2 Bft)
03.07.2020 13:50 24,2 C 24,1 C 43 % 1025,7 hPa 0,0 l/m 6,2 km/h (2 Bft) SW 215 0 min 0 W/m 10,8 C 24,2 C 16,1 km/h (3 Bft)
03.07.2020 13:45 24,1 C 23,7 C 48 % 1025,7 hPa 0,0 l/m 5,4 km/h (1 Bft) S-SW 202 0 min 0 W/m 12,4 C 24,1 C 12,9 km/h (3 Bft)
03.07.2020 13:40 23,7 C 23,2 C 50 % 1025,7 hPa 0,0 l/m 3,9 km/h (1 Bft) W-SW 253 0 min 0 W/m 12,6 C 23,7 C 14,5 km/h (3 Bft)
03.07.2020 13:35 23,2 C 22,9 C 48 % 1025,6 hPa 0,0 l/m 3,7 km/h (1 Bft) SW 227 0 min 0 W/m 11,6 C 23,2 C 12,9 km/h (3 Bft)
03.07.2020 13:30 22,9 C 22,8 C 47 % 1025,6 hPa 0,0 l/m 3,3 km/h (1 Bft) S-SW 207 0 min 0 W/m 11,0 C 22,9 C 12,9 km/h (3 Bft)
03.07.2020 13:25 22,9 C 22,9 C 47 % 1025,7 hPa 0,0 l/m 1,4 km/h (1 Bft) S-SW 200 0 min 0 W/m 11,0 C 22,9 C 12,9 km/h (3 Bft)
03.07.2020 13:20 22,9 C 22,6 C 49 % 1025,7 hPa 0,0 l/m 4,7 km/h (1 Bft) SW 236 0 min 0 W/m 11,6 C 22,9 C 14,5 km/h (3 Bft)
03.07.2020 13:15 22,6 C 22,3 C 50 % 1025,6 hPa 0,0 l/m 3,7 km/h (1 Bft) S-SO 165 0 min 0 W/m 11,6 C 22,6 C 12,9 km/h (3 Bft)
03.07.2020 13:10 22,3 C 21,9 C 51 % 1025,7 hPa 0,0 l/m 3,3 km/h (1 Bft) W-SW 254 0 min 0 W/m 11,7 C 22,3 C 11,3 km/h (2 Bft)
03.07.2020 13:05 21,9 C 21,7 C 53 % 1025,6 hPa 0,0 l/m 2,6 km/h (1 Bft) S 185 0 min 0 W/m 11,9 C 21,9 C 9,7 km/h (2 Bft)
03.07.2020 13:00 21,7 C 21,6 C 51 % 1025,6 hPa 0,0 l/m 5,0 km/h (1 Bft) SW 224 0 min 0 W/m 11,1 C 21,7 C 14,5 km/h (3 Bft)
03.07.2020 12:55 21,6 C 21,6 C 52 % 1025,7 hPa 0,0 l/m 2,8 km/h (1 Bft) W-NW 288 0 min 0 W/m 11,3 C 21,6 C 12,9 km/h (3 Bft)
03.07.2020 12:50 21,8 C 21,8 C 51 % 1025,7 hPa 0,0 l/m 1,5 km/h (1 Bft) SW 231 0 min 0 W/m 11,2 C 21,8 C 8,0 km/h (2 Bft)
03.07.2020 12:45 22,0 C 22,0 C 49 % 1025,7 hPa 0,0 l/m 4,0 km/h (1 Bft) W-NW 291 0 min 0 W/m 10,8 C 22,0 C 16,1 km/h (3 Bft)
03.07.2020 12:40 22,1 C 22,1 C 50 % 1025,6 hPa 0,0 l/m 3,1 km/h (1 Bft) W 263 0 min 0 W/m 11,2 C 22,1 C 11,3 km/h (2 Bft)
03.07.2020 12:35 22,2 C 22,1 C 50 % 1025,7 hPa 0,0 l/m 2,6 km/h (1 Bft) W 270 0 min 0 W/m 11,3 C 22,2 C 12,9 km/h (3 Bft)
03.07.2020 12:30 22,1 C 21,7 C 51 % 1025,7 hPa 0,0 l/m 3,8 km/h (1 Bft) S-SO 163 0 min 0 W/m 11,5 C 22,1 C 12,9 km/h (3 Bft)
03.07.2020 12:25 21,7 C 21,2 C 53 % 1025,8 hPa 0,0 l/m 2,4 km/h (1 Bft) W 274 0 min 0 W/m 11,7 C 21,7 C 11,3 km/h (2 Bft)
03.07.2020 12:20 21,2 C 21,0 C 54 % 1025,8 hPa 0,0 l/m 2,3 km/h (1 Bft) W 266 0 min 0 W/m 11,5 C 21,2 C 9,7 km/h (2 Bft)
03.07.2020 12:15 21,0 C 21,0 C 52 % 1025,8 hPa 0,0 l/m 0,7 km/h (0 Bft) W 276 0 min 0 W/m 10,8 C 21,0 C 6,4 km/h (2 Bft)
03.07.2020 12:10 21,1 C 21,1 C 53 % 1025,8 hPa 0,0 l/m 0,9 km/h (0 Bft) S-SW 194 0 min 0 W/m 11,1 C 21,1 C 6,4 km/h (2 Bft)
03.07.2020 12:05 21,2 C 21,2 C 52 % 1025,8 hPa 0,0 l/m 0,0 km/h (0 Bft) S-SW 200 0 min 0 W/m 10,9 C 21,2 C 1,6 km/h (1 Bft)
03.07.2020 12:00 21,6 C 21,6 C 51 % 1025,8 hPa 0,0 l/m 0,1 km/h (0 Bft) W-NW 290 0 min 0 W/m 11,0 C 21,6 C 3,2 km/h (1 Bft)
03.07.2020 11:55 21,6 C 21,5 C 53 % 1025,8 hPa 0,0 l/m 0,0 km/h (0 Bft) W-NW 303 0 min 0 W/m 11,6 C 21,6 C 1,6 km/h (1 Bft)
03.07.2020 11:50 21,5 C 21,4 C 52 % 1025,7 hPa 0,0 l/m 1,6 km/h (1 Bft) S 176 0 min 0 W/m 11,2 C 21,5 C 14,5 km/h (3 Bft)
03.07.2020 11:45 21,6 C 21,6 C 52 % 1025,8 hPa 0,0 l/m 4,6 km/h (1 Bft) W-NW 282 0 min 0 W/m 11,3 C 21,6 C 16,1 km/h (3 Bft)
03.07.2020 11:40 22,0 C 22,0 C 51 % 1025,8 hPa 0,0 l/m 3,7 km/h (1 Bft) W-NW 300 0 min 0 W/m 11,4 C 22,0 C 14,5 km/h (3 Bft)
03.07.2020 11:35 22,3 C 22,1 C 53 % 1025,8 hPa 0,0 l/m 2,1 km/h (1 Bft) W 265 0 min 0 W/m 12,2 C 22,3 C 12,9 km/h (3 Bft)
03.07.2020 11:30 22,1 C 21,6 C 52 % 1025,6 hPa 0,0 l/m 3,0 km/h (1 Bft) S-SW 202 0 min 0 W/m 11,8 C 22,1 C 11,3 km/h (2 Bft)
03.07.2020 11:25 21,6 C 21,2 C 53 % 1025,7 hPa 0,0 l/m 3,4 km/h (1 Bft) S 186 0 min 0 W/m 11,6 C 21,6 C 16,1 km/h (3 Bft)
03.07.2020 11:20 21,2 C 20,9 C 54 % 1025,6 hPa 0,0 l/m 2,5 km/h (1 Bft) W-NW 298 0 min 0 W/m 11,5 C 21,2 C 11,3 km/h (2 Bft)
03.07.2020 11:15 20,9 C 20,7 C 56 % 1025,6 hPa 0,0 l/m 0,1 km/h (0 Bft) N-NW 346 0 min 0 W/m 11,8 C 20,9 C 3,2 km/h (1 Bft)
03.07.2020 11:10 20,7 C 20,7 C 60 % 1025,7 hPa 0,0 l/m 1,3 km/h (1 Bft) S 182 0 min 0 W/m 12,7 C 20,7 C 6,4 km/h (2 Bft)
03.07.2020 11:05 20,8 C 20,8 C 57 % 1025,7 hPa 0,0 l/m 2,5 km/h (1 Bft) S-SW 211 0 min 0 W/m 12,0 C 20,8 C 11,3 km/h (2 Bft)
03.07.2020 11:00 21,1 C 21,1 C 56 % 1025,8 hPa 0,0 l/m 1,2 km/h (1 Bft) SW 224 0 min 0 W/m 12,0 C 21,1 C 11,3 km/h (2 Bft)
03.07.2020 10:55 21,3 C 21,2 C 55 % 1025,8 hPa 0,0 l/m 0,8 km/h (0 Bft) W-NW 297 0 min 0 W/m 11,9 C 21,3 C 11,3 km/h (2 Bft)
03.07.2020 10:50 21,2 C 20,7 C 58 % 1025,8 hPa 0,0 l/m 3,5 km/h (1 Bft) SW 215 0 min 0 W/m 12,6 C 21,2 C 9,7 km/h (2 Bft)
03.07.2020 10:45 20,7 C 20,4 C 59 % 1025,7 hPa 0,0 l/m 2,7 km/h (1 Bft) SW 215 0 min 0 W/m 12,4 C 20,7 C 11,3 km/h (2 Bft)
03.07.2020 10:40 20,4 C 20,3 C 60 % 1025,7 hPa 0,0 l/m 3,4 km/h (1 Bft) S 191 0 min 0 W/m 12,4 C 20,4 C 12,9 km/h (3 Bft)
03.07.2020 10:35 20,4 C 20,4 C 60 % 1025,7 hPa 0,0 l/m 0,0 km/h (0 Bft) SW 222 0 min 0 W/m 12,4 C 20,4 C 1,6 km/h (1 Bft)
03.07.2020 10:30 20,7 C 20,7 C 60 % 1025,7 hPa 0,0 l/m 1,2 km/h (1 Bft) SW 236 0 min 0 W/m 12,7 C 20,7 C 12,9 km/h (3 Bft)
03.07.2020 10:25 21,1 C 21,1 C 56 % 1025,6 hPa 0,0 l/m 4,3 km/h (1 Bft) W-NW 287 0 min 0 W/m 12,0 C 21,1 C 12,9 km/h (3 Bft)
03.07.2020 10:20 21,4 C 21,4 C 56 % 1025,6 hPa 0,0 l/m 1,0 km/h (0 Bft) W 280 0 min 0 W/m 12,3 C 21,4 C 9,7 km/h (2 Bft)
03.07.2020 10:15 21,4 C 21,1 C 59 % 1025,5 hPa 0,0 l/m 2,1 km/h (1 Bft) S 182 0 min 0 W/m 13,0 C 21,4 C 8,0 km/h (2 Bft)
03.07.2020 10:10 21,1 C 20,9 C 60 % 1025,5 hPa 0,0 l/m 2,6 km/h (1 Bft) SW 216 0 min 0 W/m 13,0 C 21,1 C 8,0 km/h (2 Bft)
03.07.2020 10:05 20,9 C 20,6 C 59 % 1025,4 hPa 0,0 l/m 1,1 km/h (1 Bft) W 275 0 min 0 W/m 12,6 C 20,9 C 9,7 km/h (2 Bft)
03.07.2020 10:00 20,6 C 20,5 C 59 % 1025,5 hPa 0,0 l/m 0,6 km/h (0 Bft) W-NW 300 0 min 0 W/m 12,3 C 20,6 C 8,0 km/h (2 Bft)
03.07.2020 09:55 20,5 C 20,3 C 62 % 1025,4 hPa 0,0 l/m 0,9 km/h (0 Bft) SW 234 0 min 0 W/m 13,0 C 20,5 C 4,8 km/h (1 Bft)
03.07.2020 09:50 20,3 C 20,3 C 62 % 1025,5 hPa 0,0 l/m 0,4 km/h (0 Bft) W-NW 288 0 min 0 W/m 12,8 C 20,3 C 6,4 km/h (2 Bft)
03.07.2020 09:45 20,3 C 20,2 C 60 % 1025,5 hPa 0,0 l/m 0,2 km/h (0 Bft) SW 217 0 min 0 W/m 12,3 C 20,3 C 4,8 km/h (1 Bft)
03.07.2020 09:40 20,2 C 20,2 C 62 % 1025,5 hPa 0,0 l/m 2,3 km/h (1 Bft) W-NW 288 0 min 0 W/m 12,7 C 20,2 C 12,9 km/h (3 Bft)
03.07.2020 09:35 20,2 C 20,0 C 63 % 1025,5 hPa 0,0 l/m 0,0 km/h (0 Bft) W 261 0 min 0 W/m 12,9 C 20,2 C 1,6 km/h (1 Bft)
03.07.2020 09:30 20,0 C 20,0 C 62 % 1025,5 hPa 0,0 l/m 0,1 km/h (0 Bft) S-SW 207 0 min 0 W/m 12,5 C 20,0 C 1,6 km/h (1 Bft)
03.07.2020 09:25 20,1 C 19,9 C 61 % 1025,4 hPa 0,0 l/m 5,1 km/h (1 Bft) W-NW 298 0 min 0 W/m 12,3 C 20,1 C 16,1 km/h (3 Bft)
03.07.2020 09:20 19,9 C 19,7 C 64 % 1025,5 hPa 0,0 l/m 0,4 km/h (0 Bft) W-NW 288 0 min 0 W/m 12,9 C 19,9 C 4,8 km/h (1 Bft)
03.07.2020 09:15 19,7 C 19,4 C 64 % 1025,5 hPa 0,0 l/m 1,2 km/h (1 Bft) N 11 0 min 0 W/m 12,7 C 19,7 C 11,3 km/h (2 Bft)
03.07.2020 09:10 19,4 C 19,4 C 64 % 1025,5 hPa 0,0 l/m 3,7 km/h (1 Bft) N 350 0 min 0 W/m 12,4 C 19,4 C 14,5 km/h (3 Bft)
03.07.2020 09:05 19,4 C 19,2 C 65 % 1025,5 hPa 0,0 l/m 3,9 km/h (1 Bft) W 271 0 min 0 W/m 12,6 C 19,4 C 12,9 km/h (3 Bft)
03.07.2020 09:00 19,2 C 18,9 C 69 % 1025,5 hPa 0,0 l/m 1,4 km/h (1 Bft) N 355 0 min 0 W/m 13,4 C 19,2 C 4,8 km/h (1 Bft)
03.07.2020 08:55 18,9 C 18,7 C 69 % 1025,5 hPa 0,0 l/m 3,0 km/h (1 Bft) S-SW 200 0 min 0 W/m 13,1 C 18,9 C 9,7 km/h (2 Bft)
03.07.2020 08:50 18,7 C 18,4 C 70 % 1025,6 hPa 0,0 l/m 3,2 km/h (1 Bft) W 271 0 min 0 W/m 13,1 C 18,7 C 8,0 km/h (2 Bft)
03.07.2020 08:45 18,4 C 17,9 C 72 % 1025,5 hPa 0,0 l/m 2,8 km/h (1 Bft) NW 311 0 min 0 W/m 13,3 C 18,4 C 11,3 km/h (2 Bft)
03.07.2020 08:40 17,9 C 17,4 C 74 % 1025,5 hPa 0,0 l/m 2,1 km/h (1 Bft) W-NW 292 0 min 0 W/m 13,2 C 17,9 C 6,4 km/h (2 Bft)
03.07.2020 08:35 17,4 C 16,9 C 79 % 1025,5 hPa 0,0 l/m 1,2 km/h (1 Bft) NW 323 0 min 0 W/m 13,7 C 17,4 C 6,4 km/h (2 Bft)
03.07.2020 08:30 16,9 C 16,6 C 81 % 1025,5 hPa 0,0 l/m 0,3 km/h (0 Bft) O 96 0 min 0 W/m 13,6 C 16,9 C 1,6 km/h (1 Bft)
03.07.2020 08:25 16,6 C 16,3 C 82 % 1025,5 hPa 0,0 l/m 0,0 km/h (0 Bft) O-SO 113 0 min 0 W/m 13,5 C 16,6 C 1,6 km/h (1 Bft)
03.07.2020 08:20 16,3 C 16,0 C 82 % 1025,5 hPa 0,0 l/m 0,6 km/h (0 Bft) O-SO 113 0 min 0 W/m 13,2 C 16,3 C 1,6 km/h (1 Bft)
03.07.2020 08:15 16,0 C 15,7 C 83 % 1025,4 hPa 0,0 l/m 0,4 km/h (0 Bft) O-SO 113 0 min 0 W/m 13,1 C 16,0 C 3,2 km/h (1 Bft)
03.07.2020 08:10 15,7 C 15,4 C 84 % 1025,4 hPa 0,0 l/m 0,5 km/h (0 Bft) O-SO 113 0 min 0 W/m 13,0 C 15,7 C 1,6 km/h (1 Bft)
03.07.2020 08:05 15,4 C 15,1 C 85 % 1025,4 hPa 0,0 l/m 0,2 km/h (0 Bft) O-SO 109 0 min 0 W/m 12,9 C 15,4 C 1,6 km/h (1 Bft)
03.07.2020 08:00 15,1 C 14,9 C 85 % 1025,3 hPa 0,0 l/m 0,1 km/h (0 Bft) O-SO 111 0 min 0 W/m 12,6 C 15,1 C 1,6 km/h (1 Bft)
03.07.2020 07:55 14,9 C 14,7 C 87 % 1025,3 hPa 0,0 l/m 0,2 km/h (0 Bft) O-SO 111 0 min 0 W/m 12,8 C 14,9 C 1,6 km/h (1 Bft)
03.07.2020 07:50 14,8 C 14,6 C 88 % 1025,2 hPa 0,0 l/m 0,7 km/h (0 Bft) O-SO 111 0 min 0 W/m 12,8 C 14,8 C 1,6 km/h (1 Bft)
03.07.2020 07:45 14,6 C 14,4 C 88 % 1025,2 hPa 0,0 l/m 0,2 km/h (0 Bft) N-NO 27 0 min 0 W/m 12,6 C 14,6 C 1,6 km/h (1 Bft)
03.07.2020 07:40 14,4 C 14,3 C 88 % 1025,2 hPa 0,0 l/m 0,0 km/h (0 Bft) N-NO 19 0 min 0 W/m 12,4 C 14,4 C 0,0 km/h (0 Bft)
03.07.2020 07:35 14,3 C 14,1 C 88 % 1025,1 hPa 0,0 l/m 0,3 km/h (0 Bft) N-NO 19 0 min 0 W/m 12,3 C 14,3 C 1,6 km/h (1 Bft)
03.07.2020 07:30 14,1 C 13,9 C 88 % 1025,1 hPa 0,0 l/m 0,4 km/h (0 Bft) N-NO 18 0 min 0 W/m 12,1 C 14,1 C 3,2 km/h (1 Bft)
03.07.2020 07:25 13,9 C 13,8 C 88 % 1025,0 hPa 0,0 l/m 0,1 km/h (0 Bft) N-NO 13 0 min 0 W/m 11,9 C 13,9 C 1,6 km/h (1 Bft)
03.07.2020 07:20 13,8 C 13,7 C 88 % 1025,0 hPa 0,0 l/m 0,0 km/h (0 Bft) N-NO 12 0 min 0 W/m 11,8 C 13,8 C 1,6 km/h (1 Bft)
03.07.2020 07:15 13,7 C 13,7 C 88 % 1024,9 hPa 0,0 l/m 0,0 km/h (0 Bft) N 11 0 min 0 W/m 11,7 C 13,7 C 0,0 km/h (0 Bft)
03.07.2020 07:10 13,7 C 13,6 C 88 % 1024,9 hPa 0,0 l/m 0,0 km/h (0 Bft) N 11 0 min 0 W/m 11,7 C 13,7 C 0,0 km/h (0 Bft)
03.07.2020 07:05 13,6 C 13,5 C 88 % 1024,9 hPa 0,0 l/m 0,0 km/h (0 Bft) N 11 0 min 0 W/m 11,6 C 13,6 C 1,6 km/h (1 Bft)
03.07.2020 07:00 13,5 C 13,5 C 88 % 1024,8 hPa 0,0 l/m 0,0 km/h (0 Bft) N 11 0 min 0 W/m 11,6 C 13,5 C 0,0 km/h (0 Bft)
03.07.2020 06:55 13,5 C 13,5 C 87 % 1024,8 hPa 0,0 l/m 0,0 km/h (0 Bft) N 11 0 min 0 W/m 11,4 C 13,5 C 0,0 km/h (0 Bft)
03.07.2020 06:50 13,5 C 13,5 C 87 % 1024,8 hPa 0,0 l/m 0,0 km/h (0 Bft) N 11 0 min 0 W/m 11,4 C 13,5 C 0,0 km/h (0 Bft)
03.07.2020 06:45 13,5 C 13,5 C 87 % 1024,8 hPa 0,0 l/m 0,1 km/h (0 Bft) N 11 0 min 0 W/m 11,4 C 13,5 C 1,6 km/h (1 Bft)
03.07.2020 06:40 13,5 C 13,5 C 87 % 1024,8 hPa 0,0 l/m 0,3 km/h (0 Bft) N 11 0 min 0 W/m 11,4 C 13,5 C 1,6 km/h (1 Bft)
03.07.2020 06:35 13,6 C 13,6 C 87 % 1024,7 hPa 0,0 l/m 0,2 km/h (0 Bft) N 11 0 min 0 W/m 11,5 C 13,6 C 3,2 km/h (1 Bft)
03.07.2020 06:30 13,6 C 13,6 C 87 % 1024,7 hPa 0,0 l/m 0,9 km/h (0 Bft) N 11 0 min 0 W/m 11,5 C 13,6 C 3,2 km/h (1 Bft)
03.07.2020 06:25 13,6 C 13,6 C 87 % 1024,6 hPa 0,0 l/m 0,2 km/h (0 Bft) N 11 0 min 0 W/m 11,5 C 13,6 C 1,6 km/h (1 Bft)
03.07.2020 06:20 13,6 C 13,6 C 87 % 1024,5 hPa 0,0 l/m 0,0 km/h (0 Bft) N 11 0 min 0 W/m 11,5 C 13,6 C 1,6 km/h (1 Bft)
03.07.2020 06:15 13,6 C 13,6 C 86 % 1024,4 hPa 0,0 l/m 0,0 km/h (0 Bft) N 11 0 min 0 W/m 11,3 C 13,6 C 1,6 km/h (1 Bft)
03.07.2020 06:10 13,6 C 13,6 C 86 % 1024,3 hPa 0,0 l/m 0,0 km/h (0 Bft) N 11 0 min 0 W/m 11,3 C 13,6 C 0,0 km/h (0 Bft)
03.07.2020 06:05 13,7 C 13,7 C 86 % 1024,3 hPa 0,0 l/m 0,0 km/h (0 Bft) N 11 0 min 0 W/m 11,4 C 13,7 C 1,6 km/h (1 Bft)
03.07.2020 06:00 13,7 C 13,7 C 86 % 1024,3 hPa 0,0 l/m 0,0 km/h (0 Bft) N 11 0 min 0 W/m 11,4 C 13,7 C 1,6 km/h (1 Bft)
03.07.2020 05:55 13,8 C 13,8 C 85 % 1024,2 hPa 0,0 l/m 0,0 km/h (0 Bft) N 11 0 min 0 W/m 11,3 C 13,8 C 0,0 km/h (0 Bft)
03.07.2020 05:50 13,9 C 13,9 C 85 % 1024,1 hPa 0,0 l/m 0,1 km/h (0 Bft) N 11 0 min 0 W/m 11,4 C 13,9 C 1,6 km/h (1 Bft)
03.07.2020 05:45 14,0 C 14,0 C 85 % 1024,1 hPa 0,0 l/m 0,1 km/h (0 Bft) N 11 0 min 0 W/m 11,5 C 14,0 C 1,6 km/h (1 Bft)
03.07.2020 05:40 14,1 C 14,1 C 85 % 1024,1 hPa 0,0 l/m 0,0 km/h (0 Bft) N 11 0 min 0 W/m 11,6 C 14,1 C 1,6 km/h (1 Bft)
03.07.2020 05:35 14,1 C 14,1 C 84 % 1024,0 hPa 0,0 l/m 0,2 km/h (0 Bft) N 9 0 min 0 W/m 11,4 C 14,1 C 1,6 km/h (1 Bft)
03.07.2020 05:30 14,2 C 14,2 C 84 % 1023,9 hPa 0,0 l/m 0,0 km/h (0 Bft) N 11 0 min 0 W/m 11,5 C 14,2 C 1,6 km/h (1 Bft)
03.07.2020 05:25 14,3 C 14,3 C 84 % 1023,8 hPa 0,0 l/m 0,2 km/h (0 Bft) N-NO 16 0 min 0 W/m 11,6 C 14,3 C 1,6 km/h (1 Bft)
03.07.2020 05:20 14,4 C 14,4 C 84 % 1023,8 hPa 0,0 l/m 0,0 km/h (0 Bft) N-NO 16 0 min 0 W/m 11,7 C 14,4 C 0,0 km/h (0 Bft)
03.07.2020 05:15 14,4 C 14,4 C 83 % 1023,8 hPa 0,0 l/m 0,0 km/h (0 Bft) N-NO 16 0 min 0 W/m 11,5 C 14,4 C 1,6 km/h (1 Bft)
03.07.2020 05:10 14,5 C 14,5 C 83 % 1023,7 hPa 0,0 l/m 1,4 km/h (1 Bft) N-NO 16 0 min 0 W/m 11,6 C 14,5 C 3,2 km/h (1 Bft)
03.07.2020 05:05 14,6 C 14,6 C 83 % 1023,6 hPa 0,0 l/m 2,8 km/h (1 Bft) N-NO 19 0 min 0 W/m 11,7 C 14,6 C 4,8 km/h (1 Bft)
03.07.2020 05:00 14,7 C 14,7 C 83 % 1023,6 hPa 0,0 l/m 1,2 km/h (1 Bft) N-NO 19 0 min 0 W/m 11,8 C 14,7 C 4,8 km/h (1 Bft)
03.07.2020 04:55 14,7 C 14,7 C 82 % 1023,5 hPa 0,0 l/m 1,0 km/h (0 Bft) N-NO 19 0 min 0 W/m 11,7 C 14,7 C 3,2 km/h (1 Bft)
03.07.2020 04:50 14,7 C 14,7 C 82 % 1023,5 hPa 0,0 l/m 1,7 km/h (1 Bft) N-NO 13 0 min 0 W/m 11,7 C 14,7 C 4,8 km/h (1 Bft)
03.07.2020 04:45 14,8 C 14,8 C 82 % 1023,5 hPa 0,0 l/m 1,2 km/h (1 Bft) N-NO 13 0 min 0 W/m 11,8 C 14,8 C 3,2 km/h (1 Bft)
03.07.2020 04:40 14,8 C 14,8 C 82 % 1023,4 hPa 0,0 l/m 1,5 km/h (1 Bft) N-NO 12 0 min 0 W/m 11,8 C 14,8 C 3,2 km/h (1 Bft)
03.07.2020 04:35 14,8 C 14,8 C 82 % 1023,4 hPa 0,0 l/m 2,0 km/h (1 Bft) N-NO 13 0 min 0 W/m 11,8 C 14,8 C 4,8 km/h (1 Bft)
03.07.2020 04:30 14,8 C 14,8 C 81 % 1023,4 hPa 0,0 l/m 2,5 km/h (1 Bft) N-NO 12 0 min 0 W/m 11,6 C 14,8 C 4,8 km/h (1 Bft)
03.07.2020 04:25 14,8 C 14,8 C 81 % 1023,4 hPa 0,0 l/m 1,7 km/h (1 Bft) N 11 0 min 0 W/m 11,6 C 14,8 C 3,2 km/h (1 Bft)
03.07.2020 04:20 14,8 C 14,8 C 81 % 1023,5 hPa 0,0 l/m 1,8 km/h (1 Bft) N 11 0 min 0 W/m 11,6 C 14,8 C 4,8 km/h (1 Bft)
03.07.2020 04:15 14,8 C 14,8 C 81 % 1023,4 hPa 0,0 l/m 2,0 km/h (1 Bft) N 10 0 min 0 W/m 11,6 C 14,8 C 4,8 km/h (1 Bft)
03.07.2020 04:10 14,9 C 14,9 C 81 % 1023,4 hPa 0,0 l/m 2,3 km/h (1 Bft) N 10 0 min 0 W/m 11,7 C 14,9 C 4,8 km/h (1 Bft)
03.07.2020 04:05 14,9 C 14,9 C 81 % 1023,3 hPa 0,0 l/m 1,6 km/h (1 Bft) N-NO 15 0 min 0 W/m 11,7 C 14,9 C 4,8 km/h (1 Bft)
03.07.2020 04:00 14,9 C 14,9 C 81 % 1023,4 hPa 0,0 l/m 1,7 km/h (1 Bft) N-NO 15 0 min 0 W/m 11,7 C 14,9 C 4,8 km/h (1 Bft)
03.07.2020 03:55 14,9 C 14,9 C 81 % 1023,4 hPa 0,0 l/m 0,5 km/h (0 Bft) N-NW 331 0 min 0 W/m 11,7 C 14,9 C 3,2 km/h (1 Bft)
03.07.2020 03:50 14,9 C 14,9 C 81 % 1023,4 hPa 0,0 l/m 0,5 km/h (0 Bft) NW 320 0 min 0 W/m 11,7 C 14,9 C 4,8 km/h (1 Bft)
03.07.2020 03:45 14,9 C 14,9 C 81 % 1023,3 hPa 0,0 l/m 2,7 km/h (1 Bft) NW 320 0 min 0 W/m 11,7 C 14,9 C 4,8 km/h (1 Bft)
03.07.2020 03:40 15,0 C 15,0 C 81 % 1023,3 hPa 0,0 l/m 1,4 km/h (1 Bft) NW 314 0 min 0 W/m 11,8 C 15,0 C 4,8 km/h (1 Bft)
03.07.2020 03:35 15,1 C 15,1 C 81 % 1023,3 hPa 0,0 l/m 2,6 km/h (1 Bft) NW 313 0 min 0 W/m 11,9 C 15,1 C 4,8 km/h (1 Bft)
03.07.2020 03:30 15,1 C 15,1 C 80 % 1023,3 hPa 0,0 l/m 2,6 km/h (1 Bft) NW 311 0 min 0 W/m 11,7 C 15,1 C 4,8 km/h (1 Bft)
03.07.2020 03:25 15,2 C 15,2 C 80 % 1023,2 hPa 0,0 l/m 2,7 km/h (1 Bft) NW 311 0 min 0 W/m 11,8 C 15,2 C 6,4 km/h (2 Bft)
03.07.2020 03:20 15,3 C 15,3 C 80 % 1023,3 hPa 0,0 l/m 1,1 km/h (1 Bft) NW 310 0 min 0 W/m 11,9 C 15,3 C 4,8 km/h (1 Bft)
03.07.2020 03:15 15,4 C 15,4 C 79 % 1023,3 hPa 0,0 l/m 1,0 km/h (0 Bft) NW 307 0 min 0 W/m 11,8 C 15,4 C 3,2 km/h (1 Bft)
03.07.2020 03:10 15,6 C 15,6 C 79 % 1023,3 hPa 0,0 l/m 2,5 km/h (1 Bft) NW 306 0 min 0 W/m 12,0 C 15,6 C 4,8 km/h (1 Bft)
03.07.2020 03:05 15,7 C 15,7 C 79 % 1023,2 hPa 0,0 l/m 2,0 km/h (1 Bft) W-NW 299 0 min 0 W/m 12,1 C 15,7 C 4,8 km/h (1 Bft)
03.07.2020 03:00 15,8 C 15,8 C 78 % 1023,1 hPa 0,0 l/m 0,6 km/h (0 Bft) W-NW 290 0 min 0 W/m 12,0 C 15,8 C 1,6 km/h (1 Bft)
03.07.2020 02:55 15,9 C 15,9 C 78 % 1023,1 hPa 0,0 l/m 1,0 km/h (0 Bft) W-NW 290 0 min 0 W/m 12,1 C 15,9 C 4,8 km/h (1 Bft)
03.07.2020 02:50 16,0 C 16,0 C 78 % 1023,0 hPa 0,0 l/m 0,0 km/h (0 Bft) W-NW 289 0 min 0 W/m 12,2 C 16,0 C 1,6 km/h (1 Bft)
03.07.2020 02:45 16,1 C 16,1 C 77 % 1023,0 hPa 0,0 l/m 0,6 km/h (0 Bft) W-NW 289 0 min 0 W/m 12,1 C 16,1 C 3,2 km/h (1 Bft)
03.07.2020 02:40 16,2 C 16,2 C 77 % 1022,9 hPa 0,0 l/m 0,7 km/h (0 Bft) W 263 0 min 0 W/m 12,2 C 16,2 C 3,2 km/h (1 Bft)
03.07.2020 02:35 16,4 C 16,4 C 77 % 1022,9 hPa 0,0 l/m 0,8 km/h (0 Bft) W 261 0 min 0 W/m 12,4 C 16,4 C 3,2 km/h (1 Bft)
03.07.2020 02:30 16,5 C 16,5 C 77 % 1022,8 hPa 0,0 l/m 0,6 km/h (0 Bft) W-SW 258 0 min 0 W/m 12,5 C 16,5 C 1,6 km/h (1 Bft)
03.07.2020 02:25 16,6 C 16,6 C 76 % 1022,8 hPa 0,0 l/m 0,0 km/h (0 Bft) W 264 0 min 0 W/m 12,3 C 16,6 C 0,0 km/h (0 Bft)
03.07.2020 02:20 16,7 C 16,7 C 76 % 1022,8 hPa 0,0 l/m 0,0 km/h (0 Bft) W 264 0 min 0 W/m 12,4 C 16,7 C 0,0 km/h (0 Bft)
03.07.2020 02:15 16,7 C 16,7 C 75 % 1022,8 hPa 0,0 l/m 0,0 km/h (0 Bft) W 264 0 min 0 W/m 12,2 C 16,7 C 1,6 km/h (1 Bft)
03.07.2020 02:10 16,8 C 16,8 C 75 % 1022,8 hPa 0,0 l/m 0,3 km/h (0 Bft) W 264 0 min 0 W/m 12,3 C 16,8 C 1,6 km/h (1 Bft)
03.07.2020 02:05 16,9 C 16,9 C 74 % 1022,8 hPa 0,0 l/m 0,1 km/h (0 Bft) W 265 0 min 0 W/m 12,2 C 16,9 C 1,6 km/h (1 Bft)
03.07.2020 02:00 17,0 C 17,0 C 74 % 1022,9 hPa 0,0 l/m 0,0 km/h (0 Bft) W 265 0 min 0 W/m 12,3 C 17,0 C 0,0 km/h (0 Bft)
03.07.2020 01:55 17,2 C 17,2 C 73 % 1022,8 hPa 0,0 l/m 0,0 km/h (0 Bft) W 265 0 min 0 W/m 12,3 C 17,2 C 1,6 km/h (1 Bft)
03.07.2020 01:50 17,3 C 17,3 C 73 % 1022,8 hPa 0,0 l/m 0,2 km/h (0 Bft) W 265 0 min 0 W/m 12,4 C 17,3 C 1,6 km/h (1 Bft)
03.07.2020 01:45 17,4 C 17,4 C 72 % 1022,8 hPa 0,0 l/m 0,5 km/h (0 Bft) W 265 0 min 0 W/m 12,3 C 17,4 C 3,2 km/h (1 Bft)
03.07.2020 01:40 17,6 C 17,6 C 71 % 1022,8 hPa 0,0 l/m 0,0 km/h (0 Bft) W 267 0 min 0 W/m 12,3 C 17,6 C 1,6 km/h (1 Bft)
03.07.2020 01:35 17,7 C 17,7 C 71 % 1022,8 hPa 0,0 l/m 0,0 km/h (0 Bft) W 267 0 min 0 W/m 12,4 C 17,7 C 0,0 km/h (0 Bft)
03.07.2020 01:30 17,8 C 17,8 C 69 % 1022,9 hPa 0,0 l/m 0,0 km/h (0 Bft) W 267 0 min 0 W/m 12,0 C 17,8 C 1,6 km/h (1 Bft)
03.07.2020 01:25 17,9 C 17,9 C 69 % 1022,8 hPa 0,0 l/m 0,0 km/h (0 Bft) W 267 0 min 0 W/m 12,1 C 17,9 C 1,6 km/h (1 Bft)
03.07.2020 01:20 18,1 C 18,1 C 69 % 1022,9 hPa 0,0 l/m 0,0 km/h (0 Bft) W 267 0 min 0 W/m 12,3 C 18,1 C 0,0 km/h (0 Bft)
03.07.2020 01:15 18,2 C 18,2 C 69 % 1022,8 hPa 0,0 l/m 0,0 km/h (0 Bft) W 267 0 min 0 W/m 12,4 C 18,2 C 0,0 km/h (0 Bft)
03.07.2020 01:10 18,3 C 18,3 C 68 % 1022,8 hPa 0,0 l/m 0,0 km/h (0 Bft) W 267 0 min 0 W/m 12,3 C 18,3 C 1,6 km/h (1 Bft)
03.07.2020 01:05 18,3 C 18,3 C 68 % 1022,9 hPa 0,0 l/m 0,0 km/h (0 Bft) W 267 0 min 0 W/m 12,3 C 18,3 C 1,6 km/h (1 Bft)
03.07.2020 01:00 18,4 C 18,4 C 67 % 1022,7 hPa 0,0 l/m 0,0 km/h (0 Bft) W 267 0 min 0 W/m 12,2 C 18,4 C 1,6 km/h (1 Bft)
03.07.2020 00:55 18,4 C 18,4 C 67 % 1022,6 hPa 0,0 l/m 0,0 km/h (0 Bft) W 267 0 min 0 W/m 12,2 C 18,4 C 0,0 km/h (0 Bft)
03.07.2020 00:50 18,4 C 18,4 C 66 % 1022,6 hPa 0,0 l/m 0,4 km/h (0 Bft) W 267 0 min 0 W/m 11,9 C 18,4 C 3,2 km/h (1 Bft)
03.07.2020 00:45 18,4 C 18,4 C 65 % 1022,5 hPa 0,0 l/m 0,7 km/h (0 Bft) W 267 0 min 0 W/m 11,7 C 18,4 C 3,2 km/h (1 Bft)
03.07.2020 00:40 18,5 C 18,5 C 65 % 1022,5 hPa 0,0 l/m 1,0 km/h (0 Bft) NW 311 0 min 0 W/m 11,8 C 18,5 C 4,8 km/h (1 Bft)
03.07.2020 00:35 18,5 C 18,5 C 66 % 1022,5 hPa 0,0 l/m 1,2 km/h (1 Bft) W-NW 299 0 min 0 W/m 12,0 C 18,5 C 4,8 km/h (1 Bft)
03.07.2020 00:30 18,6 C 18,5 C 66 % 1022,4 hPa 0,0 l/m 1,4 km/h (1 Bft) N-NW 340 0 min 0 W/m 12,1 C 18,6 C 6,4 km/h (2 Bft)
03.07.2020 00:25 18,6 C 18,6 C 66 % 1022,5 hPa 0,0 l/m 2,9 km/h (1 Bft) N-NO 26 0 min 0 W/m 12,1 C 18,6 C 14,5 km/h (3 Bft)
03.07.2020 00:20 18,6 C 18,6 C 66 % 1022,4 hPa 0,0 l/m 2,4 km/h (1 Bft) N-NW 338 0 min 0 W/m 12,1 C 18,6 C 8,0 km/h (2 Bft)
03.07.2020 00:15 18,6 C 18,6 C 66 % 1022,4 hPa 0,0 l/m 3,3 km/h (1 Bft) N 5 0 min 0 W/m 12,1 C 18,6 C 14,5 km/h (3 Bft)
03.07.2020 00:10 18,6 C 18,5 C 67 % 1022,4 hPa 0,0 l/m 0,4 km/h (0 Bft) W 275 0 min 0 W/m 12,3 C 18,6 C 3,2 km/h (1 Bft)
03.07.2020 00:05 18,5 C 18,4 C 67 % 1022,3 hPa 0,0 l/m 0,7 km/h (0 Bft) W 279 0 min 0 W/m 12,3 C 18,5 C 3,2 km/h (1 Bft)
03.07.2020 00:00 18,4 C 18,4 C 68 % 1022,2 hPa 0,0 l/m 1,3 km/h (1 Bft) W 264 0 min 0 W/m 12,4 C 18,4 C 4,8 km/h (1 Bft)
_ Min-Zeit 06:40 06:40 16:20 00:00 - 00:55 - - - - 19:15 06:40 00:55
Minimum _ 13,5 C 13,5 C 40 % 1022,2 hPa - 0,0 km/h (0 Bft) - - - - 9,0 C 13,5 C 0,0 km/h (0 Bft)
_ Max-Zeit 13:50 17:10 07:00 10:50 00:00 14:40 - - 00:00 00:00 08:35 13:50 14:00
Maximum _ 24,3 C 24,2 C 88 % 1025,8 hPa 0,0 l/m 7,1 km/h
W (2 Bft)
- - 0 min 0 W/m 13,7 C 24,2 C 22,5 km/h
W-NW (4 Bft)
Durchschnitt _ 19,6 C 19,6 C 61 % 1024,6 hPa #0,0 l/m 1,7 km/h (1 Bft) W - #0 min. 0 W/m 11,4 C 19,6 C 6,8 km/h (2 Bft)